sensor_id;sensor_type;location;lat;lon;timestamp;P1;durP1;ratioP1;P2;durP2;ratioP2
62256;SDS011;48240;52.962;5.790;2023-02-15T05:07:11;8.60;;;5.72;;
62256;SDS011;48240;52.962;5.790;2023-02-15T05:09:37;8.20;;;6.00;;
62256;SDS011;48240;52.962;5.790;2023-02-15T05:12:03;8.55;;;6.00;;
62256;SDS011;48240;52.962;5.790;2023-02-15T05:14:29;7.38;;;5.75;;
62256;SDS011;48240;52.962;5.790;2023-02-15T05:16:55;7.78;;;6.15;;
62256;SDS011;48240;52.962;5.790;2023-02-15T05:19:23;7.68;;;5.45;;
62256;SDS011;48240;52.962;5.790;2023-02-15T05:21:49;7.35;;;6.07;;
62256;SDS011;48240;52.962;5.790;2023-02-15T05:24:15;8.05;;;5.60;;
62256;SDS011;48240;52.962;5.790;2023-02-15T05:27:10;7.47;;;5.85;;
62256;SDS011;48240;52.962;5.790;2023-02-15T05:29:55;7.57;;;5.90;;
62256;SDS011;48240;52.962;5.790;2023-02-15T05:32:21;7.28;;;5.80;;
62256;SDS011;48240;52.962;5.790;2023-02-15T05:34:47;7.75;;;5.70;;
62256;SDS011;48240;52.962;5.790;2023-02-15T05:37:13;7.38;;;5.70;;
62256;SDS011;48240;52.962;5.790;2023-02-15T05:39:39;7.55;;;5.85;;
62256;SDS011;48240;52.962;5.790;2023-02-15T05:42:05;7.38;;;5.00;;
62256;SDS011;48240;52.962;5.790;2023-02-15T05:44:31;7.90;;;5.60;;
62256;SDS011;48240;52.962;5.790;2023-02-15T05:46:57;7.78;;;5.78;;
62256;SDS011;48240;52.962;5.790;2023-02-15T05:49:23;6.78;;;5.20;;
62256;SDS011;48240;52.962;5.790;2023-02-15T05:51:49;7.53;;;5.65;;
62256;SDS011;48240;52.962;5.790;2023-02-15T05:54:16;7.15;;;5.82;;
62256;SDS011;48240;52.962;5.790;2023-02-15T05:56:42;6.72;;;5.43;;
62256;SDS011;48240;52.962;5.790;2023-02-15T05:59:08;7.28;;;5.05;;
62256;SDS011;48240;52.962;5.790;2023-02-15T06:01:34;6.53;;;5.18;;
62256;SDS011;48240;52.962;5.790;2023-02-15T06:04:00;6.70;;;5.38;;
62256;SDS011;48240;52.962;5.790;2023-02-15T06:06:26;6.15;;;5.20;;
62256;SDS011;48240;52.962;5.790;2023-02-15T06:08:52;7.10;;;5.40;;
62256;SDS011;48240;52.962;5.790;2023-02-15T06:11:18;7.47;;;5.75;;
62256;SDS011;48240;52.962;5.790;2023-02-15T06:13:44;7.38;;;5.32;;
62256;SDS011;48240;52.962;5.790;2023-02-15T06:16:10;6.85;;;5.32;;
62256;SDS011;48240;52.962;5.790;2023-02-15T06:18:37;5.55;;;5.00;;
62256;SDS011;48240;52.962;5.790;2023-02-15T06:21:03;6.75;;;5.40;;
62256;SDS011;48240;52.962;5.790;2023-02-15T06:23:29;6.28;;;4.80;;
62256;SDS011;48240;52.962;5.790;2023-02-15T06:25:55;5.90;;;4.93;;
62256;SDS011;48240;52.962;5.790;2023-02-15T06:28:21;6.75;;;4.95;;
62256;SDS011;48240;52.962;5.790;2023-02-15T06:30:47;6.45;;;5.25;;
62256;SDS011;48240;52.962;5.790;2023-02-15T06:33:13;6.70;;;4.78;;
62256;SDS011;48240;52.962;5.790;2023-02-15T06:35:39;5.97;;;4.70;;
62256;SDS011;48240;52.962;5.790;2023-02-15T06:38:06;6.15;;;4.75;;
62256;SDS011;48240;52.962;5.790;2023-02-15T06:40:32;7.38;;;5.30;;
62256;SDS011;48240;52.962;5.790;2023-02-15T06:42:58;5.68;;;4.93;;
62256;SDS011;48240;52.962;5.790;2023-02-15T06:45:24;6.68;;;5.50;;
62256;SDS011;48240;52.962;5.790;2023-02-15T06:47:50;5.72;;;5.00;;
62256;SDS011;48240;52.962;5.790;2023-02-15T06:50:16;6.63;;;5.07;;
62256;SDS011;48240;52.962;5.790;2023-02-15T06:52:42;5.75;;;4.80;;
62256;SDS011;48240;52.962;5.790;2023-02-15T06:55:08;6.28;;;5.30;;
62256;SDS011;48240;52.962;5.790;2023-02-15T06:57:34;6.15;;;5.10;;
62256;SDS011;48240;52.962;5.790;2023-02-15T07:00:00;6.28;;;5.20;;
62256;SDS011;48240;52.962;5.790;2023-02-15T07:02:27;5.80;;;5.10;;
62256;SDS011;48240;52.962;5.790;2023-02-15T07:04:53;7.10;;;5.05;;
62256;SDS011;48240;52.962;5.790;2023-02-15T07:07:20;6.43;;;4.55;;
62256;SDS011;48240;52.962;5.790;2023-02-15T07:09:46;6.50;;;4.97;;
62256;SDS011;48240;52.962;5.790;2023-02-15T07:12:12;6.05;;;5.00;;
62256;SDS011;48240;52.962;5.790;2023-02-15T07:14:57;5.88;;;5.00;;
62256;SDS011;48240;52.962;5.790;2023-02-15T07:17:23;5.57;;;4.90;;
62256;SDS011;48240;52.962;5.790;2023-02-15T07:19:53;6.55;;;4.95;;
62256;SDS011;48240;52.962;5.790;2023-02-15T07:22:19;5.60;;;4.68;;
62256;SDS011;48240;52.962;5.790;2023-02-15T07:24:45;7.18;;;5.40;;
62256;SDS011;48240;52.962;5.790;2023-02-15T07:27:12;5.70;;;4.82;;
62256;SDS011;48240;52.962;5.790;2023-02-15T07:29:38;5.75;;;4.70;;
62256;SDS011;48240;52.962;5.790;2023-02-15T07:32:04;5.93;;;4.95;;
62256;SDS011;48240;52.962;5.790;2023-02-15T07:34:30;5.15;;;4.55;;
62256;SDS011;48240;52.962;5.790;2023-02-15T07:36:56;6.38;;;5.18;;
62256;SDS011;48240;52.962;5.790;2023-02-15T07:39:22;6.15;;;4.88;;
62256;SDS011;48240;52.962;5.790;2023-02-15T07:41:49;6.95;;;5.13;;
62256;SDS011;48240;52.962;5.790;2023-02-15T07:44:15;6.35;;;4.93;;
62256;SDS011;48240;52.962;5.790;2023-02-15T07:46:41;5.93;;;5.10;;
62256;SDS011;48240;52.962;5.790;2023-02-15T07:49:07;7.03;;;5.10;;
62256;SDS011;48240;52.962;5.790;2023-02-15T07:51:33;5.70;;;4.88;;
62256;SDS011;48240;52.962;5.790;2023-02-15T07:53:59;8.50;;;5.65;;
62256;SDS011;48240;52.962;5.790;2023-02-15T07:56:25;7.80;;;5.35;;
62256;SDS011;48240;52.962;5.790;2023-02-15T07:58:51;10.15;;;5.28;;
62256;SDS011;48240;52.962;5.790;2023-02-15T08:01:28;6.10;;;5.03;;
62256;SDS011;48240;52.962;5.790;2023-02-15T08:03:55;5.88;;;4.90;;
62256;SDS011;48240;52.962;5.790;2023-02-15T08:06:24;9.15;;;5.47;;
62256;SDS011;48240;52.962;5.790;2023-02-15T08:08:50;7.78;;;5.88;;
62256;SDS011;48240;52.962;5.790;2023-02-15T08:11:18;7.25;;;5.53;;
62256;SDS011;48240;52.962;5.790;2023-02-15T08:16:44;6.88;;;5.22;;
62256;SDS011;48240;52.962;5.790;2023-02-15T08:21:43;6.85;;;5.25;;
62256;SDS011;48240;52.962;5.790;2023-02-15T08:24:10;7.50;;;5.20;;
62256;SDS011;48240;52.962;5.790;2023-02-15T08:26:37;7.45;;;5.47;;
62256;SDS011;48240;52.962;5.790;2023-02-15T08:29:04;8.07;;;5.57;;
62256;SDS011;48240;52.962;5.790;2023-02-15T08:31:32;6.72;;;5.72;;
62256;SDS011;48240;52.962;5.790;2023-02-15T08:33:58;7.32;;;6.00;;
62256;SDS011;48240;52.962;5.790;2023-02-15T08:36:25;9.45;;;5.25;;
62256;SDS011;48240;52.962;5.790;2023-02-15T08:38:52;6.93;;;5.55;;
62256;SDS011;48240;52.962;5.790;2023-02-15T08:41:25;7.72;;;5.50;;
62256;SDS011;48240;52.962;5.790;2023-02-15T08:43:52;9.32;;;5.93;;
62256;SDS011;48240;52.962;5.790;2023-02-15T08:46:19;7.30;;;4.88;;
62256;SDS011;48240;52.962;5.790;2023-02-15T08:48:46;9.13;;;5.78;;
62256;SDS011;48240;52.962;5.790;2023-02-15T08:51:13;8.77;;;5.43;;
62256;SDS011;48240;52.962;5.790;2023-02-15T08:53:40;7.32;;;5.90;;
62256;SDS011;48240;52.962;5.790;2023-02-15T08:56:06;6.75;;;5.55;;
62256;SDS011;48240;52.962;5.790;2023-02-15T08:58:33;8.05;;;5.57;;
62256;SDS011;48240;52.962;5.790;2023-02-15T09:01:00;8.27;;;5.63;;
62256;SDS011;48240;52.962;5.790;2023-02-15T09:03:27;6.63;;;5.38;;
62256;SDS011;48240;52.962;5.790;2023-02-15T09:06:00;7.80;;;5.22;;
62256;SDS011;48240;52.962;5.790;2023-02-15T09:08:27;10.90;;;6.00;;
62256;SDS011;48240;52.962;5.790;2023-02-15T09:10:53;9.02;;;5.75;;
62256;SDS011;48240;52.962;5.790;2023-02-15T09:13:20;6.80;;;5.30;;
62256;SDS011;48240;52.962;5.790;2023-02-15T09:15:46;7.47;;;5.43;;
62256;SDS011;48240;52.962;5.790;2023-02-15T09:18:12;7.30;;;5.40;;
62256;SDS011;48240;52.962;5.790;2023-02-15T09:20:42;8.70;;;5.90;;
62256;SDS011;48240;52.962;5.790;2023-02-15T09:23:09;10.15;;;5.97;;
62256;SDS011;48240;52.962;5.790;2023-02-15T09:25:35;9.45;;;5.60;;
62256;SDS011;48240;52.962;5.790;2023-02-15T09:28:01;6.47;;;5.60;;
62256;SDS011;48240;52.962;5.790;2023-02-15T09:30:27;7.93;;;5.90;;
62256;SDS011;48240;52.962;5.790;2023-02-15T09:32:53;9.73;;;6.57;;
62256;SDS011;48240;52.962;5.790;2023-02-15T09:35:19;8.05;;;5.90;;
62256;SDS011;48240;52.962;5.790;2023-02-15T09:37:45;8.95;;;6.22;;
62256;SDS011;48240;52.962;5.790;2023-02-15T09:40:12;10.10;;;6.03;;
62256;SDS011;48240;52.962;5.790;2023-02-15T09:48:03;10.98;;;6.53;;
62256;SDS011;48240;52.962;5.790;2023-02-15T10:13:51;11.50;;;7.18;;
62256;SDS011;48240;52.962;5.790;2023-02-15T10:16:35;10.52;;;6.95;;
62256;SDS011;48240;52.962;5.790;2023-02-15T10:26:41;10.57;;;6.88;;
62256;SDS011;48240;52.962;5.790;2023-02-15T10:31:44;10.82;;;7.13;;
62256;SDS011;48240;52.962;5.790;2023-02-15T10:34:20;10.23;;;6.80;;
62256;SDS011;48240;52.962;5.790;2023-02-15T10:36:56;9.15;;;6.50;;
62256;SDS011;48240;52.962;5.790;2023-02-15T10:39:32;10.63;;;7.15;;
62256;SDS011;48240;52.962;5.790;2023-02-15T10:42:10;9.13;;;7.13;;
62256;SDS011;48240;52.962;5.790;2023-02-15T10:44:58;10.32;;;6.72;;
62256;SDS011;48240;52.962;5.790;2023-02-15T10:50:17;10.15;;;6.55;;
62256;SDS011;48240;52.962;5.790;2023-02-15T11:00:54;12.43;;;8.60;;
62256;SDS011;48240;52.962;5.790;2023-02-15T11:06:26;13.98;;;8.30;;
62256;SDS011;48240;52.962;5.790;2023-02-15T11:09:02;14.00;;;8.75;;
62256;SDS011;48240;52.962;5.790;2023-02-15T11:11:35;13.88;;;8.60;;
62256;SDS011;48240;52.962;5.790;2023-02-15T11:14:05;14.57;;;8.35;;
62256;SDS011;48240;52.962;5.790;2023-02-15T11:16:39;14.18;;;8.80;;
62256;SDS011;48240;52.962;5.790;2023-02-15T11:21:39;12.57;;;8.20;;
62256;SDS011;48240;52.962;5.790;2023-02-15T11:24:18;11.75;;;8.55;;
62256;SDS011;48240;52.962;5.790;2023-02-15T11:26:49;11.95;;;8.70;;
62256;SDS011;48240;52.962;5.790;2023-02-15T11:31:46;15.55;;;9.40;;
62256;SDS011;48240;52.962;5.790;2023-02-15T11:34:16;14.30;;;9.95;;
62256;SDS011;48240;52.962;5.790;2023-02-15T11:39:12;16.00;;;8.98;;
62256;SDS011;48240;52.962;5.790;2023-02-15T11:41:41;16.52;;;10.25;;
62256;SDS011;48240;52.962;5.790;2023-02-15T11:46:52;15.40;;;9.45;;
62256;SDS011;48240;52.962;5.790;2023-02-15T11:49:23;17.15;;;10.15;;
62256;SDS011;48240;52.962;5.790;2023-02-15T11:51:50;14.38;;;9.80;;
62256;SDS011;48240;52.962;5.790;2023-02-15T11:54:20;15.05;;;8.88;;
62256;SDS011;48240;52.962;5.790;2023-02-15T11:56:47;15.63;;;10.25;;
62256;SDS011;48240;52.962;5.790;2023-02-15T11:59:17;17.92;;;10.27;;
62256;SDS011;48240;52.962;5.790;2023-02-15T12:01:45;13.48;;;9.07;;
62256;SDS011;48240;52.962;5.790;2023-02-15T12:06:44;13.55;;;8.82;;
62256;SDS011;48240;52.962;5.790;2023-02-15T12:11:51;14.45;;;8.77;;
62256;SDS011;48240;52.962;5.790;2023-02-15T12:14:17;12.73;;;8.70;;
62256;SDS011;48240;52.962;5.790;2023-02-15T12:16:49;13.82;;;8.70;;
62256;SDS011;48240;52.962;5.790;2023-02-15T12:19:32;14.40;;;8.95;;
62256;SDS011;48240;52.962;5.790;2023-02-15T12:21:59;11.30;;;8.50;;
62256;SDS011;48240;52.962;5.790;2023-02-15T12:24:47;13.23;;;8.80;;
62256;SDS011;48240;52.962;5.790;2023-02-15T12:27:14;14.18;;;8.98;;
62256;SDS011;48240;52.962;5.790;2023-02-15T12:29:42;13.77;;;8.80;;
62256;SDS011;48240;52.962;5.790;2023-02-15T12:32:16;15.88;;;8.82;;
62256;SDS011;48240;52.962;5.790;2023-02-15T12:34:43;15.95;;;8.90;;
62256;SDS011;48240;52.962;5.790;2023-02-15T12:37:15;15.52;;;8.50;;
62256;SDS011;48240;52.962;5.790;2023-02-15T12:40:42;14.70;;;8.82;;
62256;SDS011;48240;52.962;5.790;2023-02-15T12:42:42;15.13;;;9.13;;
62256;SDS011;48240;52.962;5.790;2023-02-15T12:45:27;14.73;;;9.20;;
62256;SDS011;48240;52.962;5.790;2023-02-15T12:50:35;15.32;;;9.02;;
62256;SDS011;48240;52.962;5.790;2023-02-15T12:55:33;14.05;;;8.27;;
62256;SDS011;48240;52.962;5.790;2023-02-15T12:58:06;15.90;;;9.23;;
62256;SDS011;48240;52.962;5.790;2023-02-15T13:00:32;13.50;;;8.38;;
62256;SDS011;48240;52.962;5.790;2023-02-15T13:02:59;14.48;;;8.95;;
62256;SDS011;48240;52.962;5.790;2023-02-15T13:07:56;14.25;;;8.77;;
62256;SDS011;48240;52.962;5.790;2023-02-15T13:10:24;12.02;;;8.57;;
62256;SDS011;48240;52.962;5.790;2023-02-15T13:12:51;13.85;;;9.07;;
62256;SDS011;48240;52.962;5.790;2023-02-15T13:15:30;17.17;;;8.65;;
62256;SDS011;48240;52.962;5.790;2023-02-15T13:17:57;13.45;;;8.27;;
62256;SDS011;48240;52.962;5.790;2023-02-15T13:20:24;14.88;;;9.15;;
62256;SDS011;48240;52.962;5.790;2023-02-15T13:22:54;13.60;;;8.68;;
62256;SDS011;48240;52.962;5.790;2023-02-15T13:25:22;15.32;;;9.30;;
62256;SDS011;48240;52.962;5.790;2023-02-15T13:27:54;13.75;;;8.13;;
62256;SDS011;48240;52.962;5.790;2023-02-15T13:30:34;16.98;;;9.27;;
62256;SDS011;48240;52.962;5.790;2023-02-15T13:33:43;14.30;;;7.78;;
62256;SDS011;48240;52.962;5.790;2023-02-15T13:40:57;13.25;;;8.68;;
62256;SDS011;48240;52.962;5.790;2023-02-15T13:46:01;18.60;;;9.18;;
62256;SDS011;48240;52.962;5.790;2023-02-15T13:48:48;13.73;;;8.70;;
62256;SDS011;48240;52.962;5.790;2023-02-15T13:56:24;19.08;;;9.18;;
62256;SDS011;48240;52.962;5.790;2023-02-15T14:06:46;13.68;;;8.82;;
62256;SDS011;48240;52.962;5.790;2023-02-15T14:19:43;12.02;;;8.18;;
62256;SDS011;48240;52.962;5.790;2023-02-15T14:24:41;12.18;;;8.35;;
62256;SDS011;48240;52.962;5.790;2023-02-15T14:32:38;13.07;;;8.48;;
62256;SDS011;48240;52.962;5.790;2023-02-15T14:35:08;13.35;;;8.82;;
62256;SDS011;48240;52.962;5.790;2023-02-15T14:38:29;15.55;;;9.43;;
62256;SDS011;48240;52.962;5.790;2023-02-15T14:43:19;11.17;;;8.03;;
62256;SDS011;48240;52.962;5.790;2023-02-15T14:46:01;12.30;;;8.23;;
62256;SDS011;48240;52.962;5.790;2023-02-15T14:48:33;14.50;;;8.98;;
62256;SDS011;48240;52.962;5.790;2023-02-15T14:51:03;12.63;;;8.05;;
62256;SDS011;48240;52.962;5.790;2023-02-15T14:56:06;13.43;;;9.20;;
62256;SDS011;48240;52.962;5.790;2023-02-15T14:58:33;13.82;;;8.50;;
62256;SDS011;48240;52.962;5.790;2023-02-15T15:01:05;11.75;;;8.25;;
62256;SDS011;48240;52.962;5.790;2023-02-15T15:03:32;11.40;;;8.30;;
62256;SDS011;48240;52.962;5.790;2023-02-15T15:06:01;13.73;;;8.55;;
62256;SDS011;48240;52.962;5.790;2023-02-15T15:10:54;14.35;;;8.93;;
62256;SDS011;48240;52.962;5.790;2023-02-15T15:15:56;14.15;;;9.10;;
62256;SDS011;48240;52.962;5.790;2023-02-15T15:21:07;12.48;;;8.52;;
62256;SDS011;48240;52.962;5.790;2023-02-15T15:23:38;12.98;;;8.80;;
62256;SDS011;48240;52.962;5.790;2023-02-15T15:26:24;13.90;;;9.00;;
62256;SDS011;48240;52.962;5.790;2023-02-15T15:34:22;13.63;;;9.27;;
62256;SDS011;48240;52.962;5.790;2023-02-15T15:49:54;15.00;;;9.30;;
62256;SDS011;48240;52.962;5.790;2023-02-15T15:52:21;11.13;;;8.20;;
62256;SDS011;48240;52.962;5.790;2023-02-15T15:54:48;11.40;;;8.20;;
62256;SDS011;48240;52.962;5.790;2023-02-15T15:57:27;12.20;;;8.90;;
62256;SDS011;48240;52.962;5.790;2023-02-15T15:59:54;16.80;;;10.05;;
62256;SDS011;48240;52.962;5.790;2023-02-15T16:02:20;20.50;;;12.10;;
62256;SDS011;48240;52.962;5.790;2023-02-15T16:04:48;19.65;;;12.00;;
62256;SDS011;48240;52.962;5.790;2023-02-15T16:09:53;17.90;;;11.10;;
62256;SDS011;48240;52.962;5.790;2023-02-15T16:12:20;16.70;;;9.88;;
62256;SDS011;48240;52.962;5.790;2023-02-15T16:14:46;16.20;;;10.27;;
62256;SDS011;48240;52.962;5.790;2023-02-15T16:19:48;19.75;;;10.05;;
62256;SDS011;48240;52.962;5.790;2023-02-15T16:22:19;18.00;;;11.23;;
62256;SDS011;48240;52.962;5.790;2023-02-15T16:27:41;20.58;;;11.23;;
62256;SDS011;48240;52.962;5.790;2023-02-15T16:30:27;19.88;;;11.93;;
62256;SDS011;48240;52.962;5.790;2023-02-15T16:33:13;23.02;;;11.50;;
62256;SDS011;48240;52.962;5.790;2023-02-15T16:35:41;18.02;;;11.00;;
62256;SDS011;48240;52.962;5.790;2023-02-15T16:38:19;21.88;;;11.52;;
62256;SDS011;48240;52.962;5.790;2023-02-15T16:40:47;18.92;;;11.82;;
62256;SDS011;48240;52.962;5.790;2023-02-15T16:43:20;19.90;;;12.00;;
62256;SDS011;48240;52.962;5.790;2023-02-15T16:45:48;20.63;;;11.65;;
62256;SDS011;48240;52.962;5.790;2023-02-15T16:48:17;20.88;;;12.00;;
62256;SDS011;48240;52.962;5.790;2023-02-15T16:50:49;25.05;;;12.07;;
62256;SDS011;48240;52.962;5.790;2023-02-15T16:53:20;25.05;;;11.85;;
62256;SDS011;48240;52.962;5.790;2023-02-15T16:55:48;22.08;;;11.45;;
62256;SDS011;48240;52.962;5.790;2023-02-15T16:58:15;18.08;;;11.23;;
62256;SDS011;48240;52.962;5.790;2023-02-15T17:00:42;72.15;;;57.78;;
62256;SDS011;48240;52.962;5.790;2023-02-15T17:05:52;22.98;;;15.07;;
62256;SDS011;48240;52.962;5.790;2023-02-15T17:08:29;27.00;;;15.02;;
62256;SDS011;48240;52.962;5.790;2023-02-15T17:13:25;25.48;;;13.50;;
62256;SDS011;48240;52.962;5.790;2023-02-15T17:18:27;23.25;;;13.82;;
62256;SDS011;48240;52.962;5.790;2023-02-15T17:20:55;23.65;;;13.90;;
62256;SDS011;48240;52.962;5.790;2023-02-15T17:23:30;22.98;;;13.77;;
62256;SDS011;48240;52.962;5.790;2023-02-15T17:25:57;21.15;;;12.60;;
62256;SDS011;48240;52.962;5.790;2023-02-15T17:28:25;25.25;;;13.52;;
62256;SDS011;48240;52.962;5.790;2023-02-15T17:30:52;24.27;;;13.18;;
62256;SDS011;48240;52.962;5.790;2023-02-15T17:33:39;24.73;;;13.07;;
62256;SDS011;48240;52.962;5.790;2023-02-15T17:36:11;21.55;;;12.77;;
62256;SDS011;48240;52.962;5.790;2023-02-15T17:38:40;23.10;;;11.98;;
62256;SDS011;48240;52.962;5.790;2023-02-15T17:41:06;21.50;;;12.95;;
62256;SDS011;48240;52.962;5.790;2023-02-15T17:43:33;19.00;;;12.50;;
62256;SDS011;48240;52.962;5.790;2023-02-15T17:46:00;23.85;;;12.88;;
62256;SDS011;48240;52.962;5.790;2023-02-15T17:48:35;17.63;;;12.40;;
62256;SDS011;48240;52.962;5.790;2023-02-15T17:51:02;21.42;;;11.95;;
62256;SDS011;48240;52.962;5.790;2023-02-15T17:53:29;16.35;;;11.43;;
62256;SDS011;48240;52.962;5.790;2023-02-15T17:55:55;25.02;;;12.70;;
62256;SDS011;48240;52.962;5.790;2023-02-15T17:58:21;19.85;;;11.70;;
62256;SDS011;48240;52.962;5.790;2023-02-15T18:00:48;20.27;;;11.25;;
62256;SDS011;48240;52.962;5.790;2023-02-15T18:03:38;16.38;;;11.05;;
62256;SDS011;48240;52.962;5.790;2023-02-15T18:06:23;19.98;;;12.80;;
62256;SDS011;48240;52.962;5.790;2023-02-15T18:09:11;21.88;;;13.20;;
62256;SDS011;48240;52.962;5.790;2023-02-15T18:11:56;20.70;;;12.88;;
62256;SDS011;48240;52.962;5.790;2023-02-15T18:14:22;20.80;;;12.63;;
62256;SDS011;48240;52.962;5.790;2023-02-15T18:16:48;18.25;;;11.75;;
62256;SDS011;48240;52.962;5.790;2023-02-15T18:19:16;22.10;;;12.50;;
62256;SDS011;48240;52.962;5.790;2023-02-15T18:21:43;19.90;;;12.93;;
62256;SDS011;48240;52.962;5.790;2023-02-15T18:24:13;21.55;;;12.85;;
62256;SDS011;48240;52.962;5.790;2023-02-15T18:26:40;17.95;;;11.75;;
62256;SDS011;48240;52.962;5.790;2023-02-15T18:29:06;21.35;;;12.65;;
62256;SDS011;48240;52.962;5.790;2023-02-15T18:31:32;20.92;;;13.60;;
62256;SDS011;48240;52.962;5.790;2023-02-15T18:33:58;27.30;;;12.90;;
62256;SDS011;48240;52.962;5.790;2023-02-15T18:36:36;20.52;;;12.88;;
62256;SDS011;48240;52.962;5.790;2023-02-15T18:39:04;21.60;;;13.13;;
62256;SDS011;48240;52.962;5.790;2023-02-15T18:41:31;20.55;;;13.02;;
62256;SDS011;48240;52.962;5.790;2023-02-15T18:43:57;20.52;;;12.48;;
62256;SDS011;48240;52.962;5.790;2023-02-15T18:46:23;24.15;;;12.07;;
62256;SDS011;48240;52.962;5.790;2023-02-15T18:48:49;20.63;;;12.48;;
62256;SDS011;48240;52.962;5.790;2023-02-15T18:51:19;20.08;;;12.35;;
62256;SDS011;48240;52.962;5.790;2023-02-15T18:53:46;20.15;;;12.77;;
62256;SDS011;48240;52.962;5.790;2023-02-15T18:56:14;18.30;;;12.30;;
62256;SDS011;48240;52.962;5.790;2023-02-15T18:58:40;20.90;;;12.85;;
62256;SDS011;48240;52.962;5.790;2023-02-15T19:01:17;19.13;;;12.45;;
62256;SDS011;48240;52.962;5.790;2023-02-15T19:03:44;17.15;;;11.85;;
62256;SDS011;48240;52.962;5.790;2023-02-15T19:06:11;20.38;;;12.90;;
62256;SDS011;48240;52.962;5.790;2023-02-15T19:08:38;21.58;;;14.00;;
62256;SDS011;48240;52.962;5.790;2023-02-15T19:11:04;20.42;;;13.13;;
62256;SDS011;48240;52.962;5.790;2023-02-15T19:13:31;19.63;;;12.70;;
62256;SDS011;48240;52.962;5.790;2023-02-15T19:15:57;22.55;;;13.15;;
62256;SDS011;48240;52.962;5.790;2023-02-15T19:18:23;21.73;;;12.80;;
62256;SDS011;48240;52.962;5.790;2023-02-15T19:20:50;19.25;;;12.93;;
62256;SDS011;48240;52.962;5.790;2023-02-15T19:23:17;18.50;;;12.77;;
62256;SDS011;48240;52.962;5.790;2023-02-15T19:25:44;19.25;;;13.60;;
62256;SDS011;48240;52.962;5.790;2023-02-15T19:28:14;21.83;;;12.75;;
62256;SDS011;48240;52.962;5.790;2023-02-15T19:30:41;22.15;;;13.23;;
62256;SDS011;48240;52.962;5.790;2023-02-15T19:33:16;17.75;;;12.85;;
62256;SDS011;48240;52.962;5.790;2023-02-15T19:35:43;24.05;;;13.75;;
62256;SDS011;48240;52.962;5.790;2023-02-15T19:38:13;19.13;;;13.07;;
62256;SDS011;48240;52.962;5.790;2023-02-15T19:40:40;18.23;;;13.20;;
62256;SDS011;48240;52.962;5.790;2023-02-15T19:43:11;17.88;;;12.32;;
62256;SDS011;48240;52.962;5.790;2023-02-15T19:45:40;18.35;;;13.27;;
62256;SDS011;48240;52.962;5.790;2023-02-15T19:48:06;17.80;;;12.73;;
62256;SDS011;48240;52.962;5.790;2023-02-15T19:50:32;17.98;;;12.57;;
62256;SDS011;48240;52.962;5.790;2023-02-15T19:53:00;19.95;;;12.50;;
62256;SDS011;48240;52.962;5.790;2023-02-15T19:57:53;22.52;;;13.38;;
62256;SDS011;48240;52.962;5.790;2023-02-15T20:00:27;19.90;;;12.75;;
62256;SDS011;48240;52.962;5.790;2023-02-15T20:02:53;19.42;;;13.00;;
62256;SDS011;48240;52.962;5.790;2023-02-15T20:05:20;22.80;;;14.18;;
62256;SDS011;48240;52.962;5.790;2023-02-15T20:07:49;34.97;;;17.65;;
62256;SDS011;48240;52.962;5.790;2023-02-15T20:10:17;27.25;;;15.30;;
62256;SDS011;48240;52.962;5.790;2023-02-15T20:12:44;22.83;;;14.18;;
62256;SDS011;48240;52.962;5.790;2023-02-15T20:15:29;23.15;;;14.07;;
62256;SDS011;48240;52.962;5.790;2023-02-15T20:17:56;21.60;;;13.40;;
62256;SDS011;48240;52.962;5.790;2023-02-15T20:20:25;20.85;;;14.10;;
62256;SDS011;48240;52.962;5.790;2023-02-15T20:22:52;19.23;;;13.88;;
62256;SDS011;48240;52.962;5.790;2023-02-15T20:25:19;21.30;;;14.07;;
62256;SDS011;48240;52.962;5.790;2023-02-15T20:27:46;22.55;;;13.52;;
62256;SDS011;48240;52.962;5.790;2023-02-15T20:30:23;22.88;;;13.50;;
62256;SDS011;48240;52.962;5.790;2023-02-15T20:32:49;19.98;;;13.38;;
62256;SDS011;48240;52.962;5.790;2023-02-15T20:35:16;21.45;;;13.43;;
62256;SDS011;48240;52.962;5.790;2023-02-15T20:37:44;23.05;;;14.13;;
62256;SDS011;48240;52.962;5.790;2023-02-15T20:40:29;23.00;;;13.73;;
62256;SDS011;48240;52.962;5.790;2023-02-15T20:42:55;22.60;;;13.77;;
62256;SDS011;48240;52.962;5.790;2023-02-15T20:45:23;19.55;;;12.98;;
62256;SDS011;48240;52.962;5.790;2023-02-15T20:47:50;23.48;;;13.90;;
62256;SDS011;48240;52.962;5.790;2023-02-15T20:50:17;19.55;;;13.27;;
62256;SDS011;48240;52.962;5.790;2023-02-15T20:52:44;21.35;;;13.48;;
62256;SDS011;48240;52.962;5.790;2023-02-15T20:55:20;18.98;;;13.27;;
62256;SDS011;48240;52.962;5.790;2023-02-15T20:57:46;20.60;;;12.82;;
62256;SDS011;48240;52.962;5.790;2023-02-15T21:00:13;20.20;;;14.25;;
62256;SDS011;48240;52.962;5.790;2023-02-15T21:02:40;21.42;;;13.77;;
62256;SDS011;48240;52.962;5.790;2023-02-15T21:05:13;21.25;;;13.88;;
62256;SDS011;48240;52.962;5.790;2023-02-15T21:07:39;19.88;;;13.52;;
62256;SDS011;48240;52.962;5.790;2023-02-15T21:10:05;19.95;;;13.82;;
62256;SDS011;48240;52.962;5.790;2023-02-15T21:12:32;21.52;;;14.20;;
62256;SDS011;48240;52.962;5.790;2023-02-15T21:14:58;22.17;;;13.38;;
62256;SDS011;48240;52.962;5.790;2023-02-15T21:17:24;23.42;;;13.75;;
62256;SDS011;48240;52.962;5.790;2023-02-15T21:19:50;21.67;;;13.70;;
62256;SDS011;48240;52.962;5.790;2023-02-15T21:22:16;24.27;;;14.02;;
62256;SDS011;48240;52.962;5.790;2023-02-15T21:24:49;21.00;;;13.43;;
62256;SDS011;48240;52.962;5.790;2023-02-15T21:27:16;23.53;;;13.93;;
62256;SDS011;48240;52.962;5.790;2023-02-15T21:29:42;24.88;;;14.13;;
62256;SDS011;48240;52.962;5.790;2023-02-15T21:32:08;20.33;;;13.25;;
62256;SDS011;48240;52.962;5.790;2023-02-15T21:34:34;19.98;;;13.73;;
62256;SDS011;48240;52.962;5.790;2023-02-15T21:37:01;20.30;;;13.40;;
62256;SDS011;48240;52.962;5.790;2023-02-15T21:39:27;23.88;;;13.55;;
62256;SDS011;48240;52.962;5.790;2023-02-15T21:41:54;19.75;;;12.88;;
62256;SDS011;48240;52.962;5.790;2023-02-15T21:44:39;19.42;;;13.00;;
62256;SDS011;48240;52.962;5.790;2023-02-15T21:47:25;21.10;;;13.40;;
62256;SDS011;48240;52.962;5.790;2023-02-15T21:50:11;22.55;;;12.68;;
62256;SDS011;48240;52.962;5.790;2023-02-15T21:52:56;19.77;;;13.05;;
62256;SDS011;48240;52.962;5.790;2023-02-15T21:55:22;21.08;;;12.57;;
62256;SDS011;48240;52.962;5.790;2023-02-15T21:57:48;18.08;;;12.05;;
62256;SDS011;48240;52.962;5.790;2023-02-15T22:00:19;19.27;;;12.15;;
62256;SDS011;48240;52.962;5.790;2023-02-15T22:02:46;15.87;;;11.23;;
62256;SDS011;48240;52.962;5.790;2023-02-15T22:05:13;16.50;;;11.82;;
62256;SDS011;48240;52.962;5.790;2023-02-15T22:07:40;18.17;;;12.15;;
62256;SDS011;48240;52.962;5.790;2023-02-15T22:10:06;22.05;;;12.68;;
62256;SDS011;48240;52.962;5.790;2023-02-15T22:12:32;17.27;;;11.25;;
62256;SDS011;48240;52.962;5.790;2023-02-15T22:14:58;16.90;;;11.38;;
62256;SDS011;48240;52.962;5.790;2023-02-15T22:17:25;21.67;;;10.95;;
62256;SDS011;48240;52.962;5.790;2023-02-15T22:19:55;18.13;;;12.93;;
62256;SDS011;48240;52.962;5.790;2023-02-15T22:22:21;18.13;;;12.85;;
62256;SDS011;48240;52.962;5.790;2023-02-15T22:24:48;20.80;;;12.15;;
62256;SDS011;48240;52.962;5.790;2023-02-15T22:27:19;18.23;;;11.57;;
62256;SDS011;48240;52.962;5.790;2023-02-15T22:29:46;18.60;;;12.75;;
62256;SDS011;48240;52.962;5.790;2023-02-15T22:32:25;21.15;;;12.05;;
62256;SDS011;48240;52.962;5.790;2023-02-15T22:34:51;30.50;;;11.93;;
62256;SDS011;48240;52.962;5.790;2023-02-15T22:37:18;17.58;;;11.93;;
62256;SDS011;48240;52.962;5.790;2023-02-15T22:39:44;18.02;;;12.20;;
62256;SDS011;48240;52.962;5.790;2023-02-15T22:42:28;21.02;;;12.70;;